Belle Glade, Florida
Current Conditions -  °F | °C
As of 12:53 PM on Wednesday 28 Jan 2015 (Local Time) from KPBI Reporting Station
Few Clouds Few Clouds  
Wind Chill: 67°   Ceiling: Unl
Heat Index: 67°   Visibility: 10mi
Dew Point: 29°   Wind: 13mph
Humidity: 24%   Direction: 330°NNW
Pressure: 30.14"   Gusts: NA
Location:  26.69°N, 80.67°W
Report Text: KPBI 281753Z 33011KT 10SM FEW010 FEW040 19/M02 A3014 RMK AO2 SLP205 FU FEW010 T01941017 10194 20094 58010
Loading
Personal Weather Stations






























Interactive Weather Map New forecast layout! Learn more

10-Day Weather Forecast

Advertisements
Track Severe Weather on mobile